Terminal Aerodrome Forecast
Issued by NWS Wilmington, OH

Current Version | Previous Version | Graphics & Text | Print | Product List | Glossary On
Versions: 1 2 3 4 5 6 7 8 9 10 11 12 13 14 15 16 17 18 19 20 21 22 23 24 25 26 27 28 29 30 31 32 33 34 35 36 37 38
000
FTUS41 KILN 010500 AAB
TAFDAY
TAF AMD
KDAY 010513Z 0105/0124 20006KT 5SM -SN BR OVC035
      TEMPO 0105/0108 2SM -SN BR OVC020
     FM011100 14004KT 4SM BR VCSH SCT012 BKN020
     FM011500 12006KT P6SM VCSH BKN025 OVC040
     FM011800 11008KT 4SM -RASN BKN020
     FM012100 10008KT 1 1/2SM RA BKN008=

USA.gov is the U.S. government's official web portal to all federal, state and local government web resources and services.